CheckWX is a tool to help pilots better visualize weather data.  It is not intended as a substitute for an official pre-flight weather briefing.

17:57:49 UTC

KVPS TAF
Eglin AFB / Destin-Ft Walton Beach Airport
Valparaiso/Destin-Ft Walton Beach, Florida, USA
TAF KVPS 171700Z 1717/1823 02009KT 9999 FEW190 BKN250 QNH2994INS BECMG 1807/1808 04009KT 9999 FEW060 SCT120 BKN180 QNH2990INS BECMG 1813/1814 08010G15KT 9999 SCT060 BKN120 BKN180 QNH2985INS BECMG 1816/1817 08010G20KT 9999 -RA FEW015 BKN050 BKN100 OVC180 QNH2974INS BECMG 1820/1821 07015G25KT 8000 -RA FEW009 BKN015 BKN040 OVC120 QNH2970INS TX21/1721Z TN13/1811Z

Oct-17@
17:00 UTC

Oct-17 @ 17:00 UTC

Oct-18@
07:00 UTC

Oct-18 @ 07:00 UTC

TAF KVPS 171700Z 1717/1823 02009KT 9999 FEW190 BKN250 QNH2994INS
Wind
  • 020° at 9 KTS
Cloud Levels
  • Few at 19,000' AGL
  • Broken at 25,000' AGL

Oct-18@
07:00 UTC

Oct-18 @ 07:00 UTC

Oct-18@
13:00 UTC

Oct-18 @ 13:00 UTC

BECMG 1807/1808 04009KT 9999 FEW060 SCT120 BKN180 QNH2990INS

Becoming

Becoming Conditions expected by Fri, Oct 18, 2019 @ 08:00 UTC

Wind
  • 040° at 9 KTS
Cloud Levels
  • Few at 6,000' AGL
  • Scattered at 12,000' AGL
  • Broken at 18,000' AGL

Oct-18@
13:00 UTC

Oct-18 @ 13:00 UTC

Oct-18@
16:00 UTC

Oct-18 @ 16:00 UTC

BECMG 1813/1814 08010G15KT 9999 SCT060 BKN120 BKN180 QNH2985INS

Becoming

Becoming Conditions expected by Fri, Oct 18, 2019 @ 14:00 UTC

Wind
  • 080° at 10 KTS
  • {Gusting to 15 KTS
Cloud Levels
  • Scattered at 6,000' AGL
  • Broken at 12,000' AGL
  • Broken at 18,000' AGL

Oct-18@
16:00 UTC

Oct-18 @ 16:00 UTC

Oct-18@
20:00 UTC

Oct-18 @ 20:00 UTC

BECMG 1816/1817 08010G20KT 9999 -RA FEW015 BKN050 BKN100 OVC180 QNH2974INS

Becoming

Becoming Conditions expected by Fri, Oct 18, 2019 @ 17:00 UTC

Wind
  • 080° at 10 KTS
  • {Gusting to 20 KTS
Conditions
Light Rain
Cloud Levels
  • Few at 1,500' AGL
  • Broken at 5,000' AGL
  • Broken at 10,000' AGL

Oct-18@
20:00 UTC

Oct-18 @ 20:00 UTC

Oct-18@
23:00 UTC

Oct-18 @ 23:00 UTC

BECMG 1820/1821 07015G25KT 8000 -RA FEW009 BKN015 BKN040 OVC120 QNH2970INS TX21/1721Z TN13/1811Z

Becoming

Becoming Conditions expected by Fri, Oct 18, 2019 @ 21:00 UTC

Wind
  • 070° at 15 KTS
  • {Gusting to 25 KTS
Conditions
Light Rain
Cloud Levels
  • Few at 900' AGL
  • Broken at 1,500' AGL
  • Broken at 4,000' AGL